Terminal Aerodrome Forecast
Issued by NWS Wilmington, OH

Current Version | Previous Version | Graphics & Text | Print | Product List | Glossary On
Versions: 1 2 3 4 5 6 7 8 9 10 11 12 13 14 15 16 17
529
FTUS41 KILN 211733
TAFILN
TAF
KILN 211733Z 2118/2218 21012KT P6SM VCTS BKN018CB BKN027
     FM212300 25009KT P6SM BKN040
     FM220600 28008KT P6SM SCT090
     FM221300 27010KT P6SM FEW035 SCT250=

USA.gov is the U.S. government's official web portal to all federal, state and local government web resources and services.